sensor_id;sensor_type;location;lat;lon;timestamp;temperature;humidity
16655;DHT22;8441;51.344;7.022;2024-01-27T00:01:34;2.00;99.90
16655;DHT22;8441;51.344;7.022;2024-01-27T00:04:02;2.00;99.90
16655;DHT22;8441;51.344;7.022;2024-01-27T00:06:29;2.00;99.90
16655;DHT22;8441;51.344;7.022;2024-01-27T00:08:56;1.90;99.90
16655;DHT22;8441;51.344;7.022;2024-01-27T00:11:24;1.80;99.90
16655;DHT22;8441;51.344;7.022;2024-01-27T00:13:52;1.90;99.90
16655;DHT22;8441;51.344;7.022;2024-01-27T00:16:20;1.90;99.90
16655;DHT22;8441;51.344;7.022;2024-01-27T00:18:47;1.90;99.90
16655;DHT22;8441;51.344;7.022;2024-01-27T00:21:14;1.80;99.90
16655;DHT22;8441;51.344;7.022;2024-01-27T00:23:42;1.80;99.90
16655;DHT22;8441;51.344;7.022;2024-01-27T00:26:09;1.80;99.90
16655;DHT22;8441;51.344;7.022;2024-01-27T00:28:37;1.80;99.90
16655;DHT22;8441;51.344;7.022;2024-01-27T00:31:06;1.90;99.90
16655;DHT22;8441;51.344;7.022;2024-01-27T00:33:33;1.90;99.90
16655;DHT22;8441;51.344;7.022;2024-01-27T00:36:01;1.90;99.90
16655;DHT22;8441;51.344;7.022;2024-01-27T00:38:29;1.90;99.90
16655;DHT22;8441;51.344;7.022;2024-01-27T00:40:56;1.80;99.90
16655;DHT22;8441;51.344;7.022;2024-01-27T00:43:23;1.80;99.90
16655;DHT22;8441;51.344;7.022;2024-01-27T00:45:50;1.80;99.90
16655;DHT22;8441;51.344;7.022;2024-01-27T00:48:19;1.80;99.90
16655;DHT22;8441;51.344;7.022;2024-01-27T00:50:46;1.80;99.90
16655;DHT22;8441;51.344;7.022;2024-01-27T00:53:14;1.80;99.90
16655;DHT22;8441;51.344;7.022;2024-01-27T00:55:41;2.10;99.90
16655;DHT22;8441;51.344;7.022;2024-01-27T00:58:09;2.00;99.90
16655;DHT22;8441;51.344;7.022;2024-01-27T01:00:36;1.90;99.90
16655;DHT22;8441;51.344;7.022;2024-01-27T01:03:03;1.70;99.90
16655;DHT22;8441;51.344;7.022;2024-01-27T01:05:32;1.70;99.90
16655;DHT22;8441;51.344;7.022;2024-01-27T01:07:59;1.70;99.90
16655;DHT22;8441;51.344;7.022;2024-01-27T01:10:27;1.60;99.90
16655;DHT22;8441;51.344;7.022;2024-01-27T01:12:54;1.60;99.90
16655;DHT22;8441;51.344;7.022;2024-01-27T01:15:21;1.50;99.90
16655;DHT22;8441;51.344;7.022;2024-01-27T01:17:49;1.50;99.90
16655;DHT22;8441;51.344;7.022;2024-01-27T01:20:16;1.50;99.90
16655;DHT22;8441;51.344;7.022;2024-01-27T01:22:45;1.60;99.90
16655;DHT22;8441;51.344;7.022;2024-01-27T01:25:12;1.50;99.90
16655;DHT22;8441;51.344;7.022;2024-01-27T01:27:39;1.50;99.90
16655;DHT22;8441;51.344;7.022;2024-01-27T01:30:07;1.50;99.90
16655;DHT22;8441;51.344;7.022;2024-01-27T01:32:35;1.40;99.90
16655;DHT22;8441;51.344;7.022;2024-01-27T01:35:02;1.40;99.90
16655;DHT22;8441;51.344;7.022;2024-01-27T01:37:30;1.40;99.90
16655;DHT22;8441;51.344;7.022;2024-01-27T01:39:59;1.50;99.90
16655;DHT22;8441;51.344;7.022;2024-01-27T01:42:26;1.50;99.90
16655;DHT22;8441;51.344;7.022;2024-01-27T01:44:53;1.50;99.90
16655;DHT22;8441;51.344;7.022;2024-01-27T01:47:21;1.50;99.90
16655;DHT22;8441;51.344;7.022;2024-01-27T01:49:49;1.40;99.90
16655;DHT22;8441;51.344;7.022;2024-01-27T01:52:16;1.50;99.90
16655;DHT22;8441;51.344;7.022;2024-01-27T01:54:46;1.50;99.90
16655;DHT22;8441;51.344;7.022;2024-01-27T01:57:16;1.50;99.90
16655;DHT22;8441;51.344;7.022;2024-01-27T01:59:44;1.50;99.90
16655;DHT22;8441;51.344;7.022;2024-01-27T02:02:12;1.40;99.90
16655;DHT22;8441;51.344;7.022;2024-01-27T02:04:40;1.50;99.90
16655;DHT22;8441;51.344;7.022;2024-01-27T02:07:08;1.50;99.90
16655;DHT22;8441;51.344;7.022;2024-01-27T02:09:35;1.40;99.90
16655;DHT22;8441;51.344;7.022;2024-01-27T02:12:03;1.40;99.90
16655;DHT22;8441;51.344;7.022;2024-01-27T02:14:31;1.40;99.90
16655;DHT22;8441;51.344;7.022;2024-01-27T02:16:59;1.30;99.90
16655;DHT22;8441;51.344;7.022;2024-01-27T02:19:26;1.30;99.90
16655;DHT22;8441;51.344;7.022;2024-01-27T02:21:53;1.30;99.90
16655;DHT22;8441;51.344;7.022;2024-01-27T02:24:22;1.30;99.90
16655;DHT22;8441;51.344;7.022;2024-01-27T02:26:49;1.20;99.90
16655;DHT22;8441;51.344;7.022;2024-01-27T02:29:17;1.30;99.90
16655;DHT22;8441;51.344;7.022;2024-01-27T02:31:45;1.40;99.90
16655;DHT22;8441;51.344;7.022;2024-01-27T02:34:12;1.40;99.90
16655;DHT22;8441;51.344;7.022;2024-01-27T02:36:39;1.30;99.90
16655;DHT22;8441;51.344;7.022;2024-01-27T02:39:09;1.20;99.90
16655;DHT22;8441;51.344;7.022;2024-01-27T02:41:38;1.20;99.90
16655;DHT22;8441;51.344;7.022;2024-01-27T02:44:05;1.30;99.90
16655;DHT22;8441;51.344;7.022;2024-01-27T02:46:32;1.30;99.90
16655;DHT22;8441;51.344;7.022;2024-01-27T02:49:00;1.30;99.90
16655;DHT22;8441;51.344;7.022;2024-01-27T02:51:27;1.20;99.90
16655;DHT22;8441;51.344;7.022;2024-01-27T02:53:54;1.30;99.90
16655;DHT22;8441;51.344;7.022;2024-01-27T02:56:21;1.30;99.90
16655;DHT22;8441;51.344;7.022;2024-01-27T02:58:50;1.30;99.90
16655;DHT22;8441;51.344;7.022;2024-01-27T03:01:18;1.20;99.90
16655;DHT22;8441;51.344;7.022;2024-01-27T03:03:45;1.30;99.90
16655;DHT22;8441;51.344;7.022;2024-01-27T03:06:12;1.30;99.90
16655;DHT22;8441;51.344;7.022;2024-01-27T03:08:39;1.20;99.90
16655;DHT22;8441;51.344;7.022;2024-01-27T03:11:07;1.30;99.90
16655;DHT22;8441;51.344;7.022;2024-01-27T03:13:34;1.30;99.90
16655;DHT22;8441;51.344;7.022;2024-01-27T03:16:03;1.20;99.90
16655;DHT22;8441;51.344;7.022;2024-01-27T03:18:35;1.20;99.90
16655;DHT22;8441;51.344;7.022;2024-01-27T03:21:03;1.20;99.90
16655;DHT22;8441;51.344;7.022;2024-01-27T03:23:30;1.30;99.90
16655;DHT22;8441;51.344;7.022;2024-01-27T03:25:58;1.20;99.90
16655;DHT22;8441;51.344;7.022;2024-01-27T03:28:25;1.30;99.90
16655;DHT22;8441;51.344;7.022;2024-01-27T03:30:52;1.30;99.90
16655;DHT22;8441;51.344;7.022;2024-01-27T03:33:21;1.40;99.90
16655;DHT22;8441;51.344;7.022;2024-01-27T03:35:48;1.40;99.90
16655;DHT22;8441;51.344;7.022;2024-01-27T03:38:16;1.40;99.90
16655;DHT22;8441;51.344;7.022;2024-01-27T03:40:43;1.40;99.90
16655;DHT22;8441;51.344;7.022;2024-01-27T03:43:10;1.40;99.90
16655;DHT22;8441;51.344;7.022;2024-01-27T03:45:38;1.40;99.90
16655;DHT22;8441;51.344;7.022;2024-01-27T03:48:06;1.30;99.90
16655;DHT22;8441;51.344;7.022;2024-01-27T03:50:35;1.30;99.90
16655;DHT22;8441;51.344;7.022;2024-01-27T03:53:02;1.30;99.90
16655;DHT22;8441;51.344;7.022;2024-01-27T03:55:29;1.30;99.90
16655;DHT22;8441;51.344;7.022;2024-01-27T03:57:57;1.20;99.90
16655;DHT22;8441;51.344;7.022;2024-01-27T04:00:24;1.20;99.90
16655;DHT22;8441;51.344;7.022;2024-01-27T04:02:53;1.20;99.90
16655;DHT22;8441;51.344;7.022;2024-01-27T04:05:20;1.10;99.90
16655;DHT22;8441;51.344;7.022;2024-01-27T04:07:49;1.20;99.90
16655;DHT22;8441;51.344;7.022;2024-01-27T04:10:17;1.10;99.90
16655;DHT22;8441;51.344;7.022;2024-01-27T04:12:44;1.10;99.90
16655;DHT22;8441;51.344;7.022;2024-01-27T04:15:12;1.00;99.90
16655;DHT22;8441;51.344;7.022;2024-01-27T04:17:40;1.00;99.90
16655;DHT22;8441;51.344;7.022;2024-01-27T04:20:08;1.00;99.90
16655;DHT22;8441;51.344;7.022;2024-01-27T04:22:36;0.90;99.90
16655;DHT22;8441;51.344;7.022;2024-01-27T04:25:05;1.10;99.90
16655;DHT22;8441;51.344;7.022;2024-01-27T04:27:37;1.10;99.90
16655;DHT22;8441;51.344;7.022;2024-01-27T04:30:06;1.10;99.90
16655;DHT22;8441;51.344;7.022;2024-01-27T04:32:36;1.10;99.90
16655;DHT22;8441;51.344;7.022;2024-01-27T04:35:08;1.10;99.90
16655;DHT22;8441;51.344;7.022;2024-01-27T04:37:35;1.10;99.90
16655;DHT22;8441;51.344;7.022;2024-01-27T04:40:05;1.00;99.90
16655;DHT22;8441;51.344;7.022;2024-01-27T04:42:33;0.90;99.90
16655;DHT22;8441;51.344;7.022;2024-01-27T04:45:00;0.90;99.90
16655;DHT22;8441;51.344;7.022;2024-01-27T04:47:29;0.90;99.90
16655;DHT22;8441;51.344;7.022;2024-01-27T04:49:56;0.90;99.90
16655;DHT22;8441;51.344;7.022;2024-01-27T04:52:24;0.90;99.90
16655;DHT22;8441;51.344;7.022;2024-01-27T04:54:51;0.90;99.90
16655;DHT22;8441;51.344;7.022;2024-01-27T04:57:20;0.90;99.90
16655;DHT22;8441;51.344;7.022;2024-01-27T04:59:47;0.90;99.90
16655;DHT22;8441;51.344;7.022;2024-01-27T05:02:15;0.80;99.90
16655;DHT22;8441;51.344;7.022;2024-01-27T05:04:42;0.90;99.90
16655;DHT22;8441;51.344;7.022;2024-01-27T05:07:09;1.10;99.90
16655;DHT22;8441;51.344;7.022;2024-01-27T05:09:36;1.00;99.90
16655;DHT22;8441;51.344;7.022;2024-01-27T05:12:04;1.00;99.90
16655;DHT22;8441;51.344;7.022;2024-01-27T05:14:33;1.00;99.90
16655;DHT22;8441;51.344;7.022;2024-01-27T05:17:01;0.90;99.90
16655;DHT22;8441;51.344;7.022;2024-01-27T05:19:28;0.90;99.90
16655;DHT22;8441;51.344;7.022;2024-01-27T05:21:55;1.00;99.90
16655;DHT22;8441;51.344;7.022;2024-01-27T05:24:22;0.90;99.90
16655;DHT22;8441;51.344;7.022;2024-01-27T05:26:49;1.00;99.90
16655;DHT22;8441;51.344;7.022;2024-01-27T05:29:17;1.00;99.90
16655;DHT22;8441;51.344;7.022;2024-01-27T05:31:45;1.00;99.90
16655;DHT22;8441;51.344;7.022;2024-01-27T05:34:13;0.90;99.90
16655;DHT22;8441;51.344;7.022;2024-01-27T05:36:40;0.90;99.90
16655;DHT22;8441;51.344;7.022;2024-01-27T05:39:08;0.90;99.90
16655;DHT22;8441;51.344;7.022;2024-01-27T05:41:35;0.90;99.90
16655;DHT22;8441;51.344;7.022;2024-01-27T05:44:03;0.90;99.90
16655;DHT22;8441;51.344;7.022;2024-01-27T05:46:30;0.90;99.90
16655;DHT22;8441;51.344;7.022;2024-01-27T05:48:59;0.90;99.90
16655;DHT22;8441;51.344;7.022;2024-01-27T05:51:29;0.90;99.90
16655;DHT22;8441;51.344;7.022;2024-01-27T05:53:56;0.80;99.90
16655;DHT22;8441;51.344;7.022;2024-01-27T05:56:23;0.90;99.90
16655;DHT22;8441;51.344;7.022;2024-01-27T05:58:51;0.80;99.90
16655;DHT22;8441;51.344;7.022;2024-01-27T06:01:18;0.80;99.90
16655;DHT22;8441;51.344;7.022;2024-01-27T06:03:46;0.80;99.90
16655;DHT22;8441;51.344;7.022;2024-01-27T06:06:14;0.80;99.90
16655;DHT22;8441;51.344;7.022;2024-01-27T06:08:42;0.80;99.90
16655;DHT22;8441;51.344;7.022;2024-01-27T06:11:09;0.70;99.90
16655;DHT22;8441;51.344;7.022;2024-01-27T06:13:36;0.70;99.90
16655;DHT22;8441;51.344;7.022;2024-01-27T06:16:09;0.70;99.90
16655;DHT22;8441;51.344;7.022;2024-01-27T06:18:37;0.70;99.90
16655;DHT22;8441;51.344;7.022;2024-01-27T06:21:05;0.70;99.90
16655;DHT22;8441;51.344;7.022;2024-01-27T06:23:34;0.60;99.90
16655;DHT22;8441;51.344;7.022;2024-01-27T06:26:05;0.50;99.90
16655;DHT22;8441;51.344;7.022;2024-01-27T06:28:32;0.50;99.90
16655;DHT22;8441;51.344;7.022;2024-01-27T06:31:00;0.50;99.90
16655;DHT22;8441;51.344;7.022;2024-01-27T06:33:27;0.50;99.90
16655;DHT22;8441;51.344;7.022;2024-01-27T06:35:55;0.50;99.90
16655;DHT22;8441;51.344;7.022;2024-01-27T06:38:22;0.60;99.90
16655;DHT22;8441;51.344;7.022;2024-01-27T06:40:51;0.60;99.90
16655;DHT22;8441;51.344;7.022;2024-01-27T06:43:18;0.60;99.90
16655;DHT22;8441;51.344;7.022;2024-01-27T06:45:45;0.60;99.90
16655;DHT22;8441;51.344;7.022;2024-01-27T06:48:13;0.60;99.90
16655;DHT22;8441;51.344;7.022;2024-01-27T06:50:40;0.60;99.90
16655;DHT22;8441;51.344;7.022;2024-01-27T06:53:07;0.50;99.90
16655;DHT22;8441;51.344;7.022;2024-01-27T06:55:36;0.60;99.90
16655;DHT22;8441;51.344;7.022;2024-01-27T06:58:05;0.70;99.90
16655;DHT22;8441;51.344;7.022;2024-01-27T07:00:32;0.80;99.90
16655;DHT22;8441;51.344;7.022;2024-01-27T07:02:59;0.80;99.90
16655;DHT22;8441;51.344;7.022;2024-01-27T07:05:26;0.80;99.90
16655;DHT22;8441;51.344;7.022;2024-01-27T07:07:53;0.70;99.90
16655;DHT22;8441;51.344;7.022;2024-01-27T07:10:21;0.80;99.90
16655;DHT22;8441;51.344;7.022;2024-01-27T07:12:48;0.70;99.90
16655;DHT22;8441;51.344;7.022;2024-01-27T07:15:17;0.60;99.90
16655;DHT22;8441;51.344;7.022;2024-01-27T07:17:46;0.70;99.90
16655;DHT22;8441;51.344;7.022;2024-01-27T07:20:14;0.70;99.90
16655;DHT22;8441;51.344;7.022;2024-01-27T07:22:42;0.80;99.90
16655;DHT22;8441;51.344;7.022;2024-01-27T07:25:10;0.90;99.90
16655;DHT22;8441;51.344;7.022;2024-01-27T07:27:37;0.90;99.90
16655;DHT22;8441;51.344;7.022;2024-01-27T07:30:06;0.90;99.90
16655;DHT22;8441;51.344;7.022;2024-01-27T07:32:36;0.90;99.90
16655;DHT22;8441;51.344;7.022;2024-01-27T07:35:04;0.90;99.90
16655;DHT22;8441;51.344;7.022;2024-01-27T07:37:32;1.00;99.90
16655;DHT22;8441;51.344;7.022;2024-01-27T07:39:59;0.90;99.90
16655;DHT22;8441;51.344;7.022;2024-01-27T07:42:26;1.00;99.90
16655;DHT22;8441;51.344;7.022;2024-01-27T07:44:54;1.00;99.90
16655;DHT22;8441;51.344;7.022;2024-01-27T07:47:21;1.00;99.90
16655;DHT22;8441;51.344;7.022;2024-01-27T07:49:50;1.00;99.90
16655;DHT22;8441;51.344;7.022;2024-01-27T07:52:18;1.00;99.90
16655;DHT22;8441;51.344;7.022;2024-01-27T07:54:45;1.00;99.90
16655;DHT22;8441;51.344;7.022;2024-01-27T07:57:13;1.10;99.90
16655;DHT22;8441;51.344;7.022;2024-01-27T07:59:40;1.10;99.90
16655;DHT22;8441;51.344;7.022;2024-01-27T08:02:07;1.00;99.90
16655;DHT22;8441;51.344;7.022;2024-01-27T08:04:34;1.00;99.90
16655;DHT22;8441;51.344;7.022;2024-01-27T08:07:03;1.00;99.90
16655;DHT22;8441;51.344;7.022;2024-01-27T08:09:35;1.00;99.90
16655;DHT22;8441;51.344;7.022;2024-01-27T08:12:04;1.10;99.90
16655;DHT22;8441;51.344;7.022;2024-01-27T08:14:31;1.10;99.90
16655;DHT22;8441;51.344;7.022;2024-01-27T08:16:59;1.10;99.90
16655;DHT22;8441;51.344;7.022;2024-01-27T08:19:26;1.10;99.90
16655;DHT22;8441;51.344;7.022;2024-01-27T08:21:54;1.10;99.90
16655;DHT22;8441;51.344;7.022;2024-01-27T08:24:22;1.20;99.90
16655;DHT22;8441;51.344;7.022;2024-01-27T08:26:50;1.30;99.90
16655;DHT22;8441;51.344;7.022;2024-01-27T08:29:18;1.40;99.90
16655;DHT22;8441;51.344;7.022;2024-01-27T08:31:45;1.40;99.90
16655;DHT22;8441;51.344;7.022;2024-01-27T08:34:12;1.40;99.90
16655;DHT22;8441;51.344;7.022;2024-01-27T08:36:40;1.40;99.90
16655;DHT22;8441;51.344;7.022;2024-01-27T08:39:07;1.40;99.90
16655;DHT22;8441;51.344;7.022;2024-01-27T08:41:36;1.50;99.90
16655;DHT22;8441;51.344;7.022;2024-01-27T08:44:03;1.50;99.90
16655;DHT22;8441;51.344;7.022;2024-01-27T08:46:31;1.50;99.90
16655;DHT22;8441;51.344;7.022;2024-01-27T08:48:58;1.50;99.90
16655;DHT22;8441;51.344;7.022;2024-01-27T08:51:25;1.50;99.90
16655;DHT22;8441;51.344;7.022;2024-01-27T08:53:52;1.60;99.90
16655;DHT22;8441;51.344;7.022;2024-01-27T08:56:20;1.70;99.90
16655;DHT22;8441;51.344;7.022;2024-01-27T08:58:49;1.70;99.90
16655;DHT22;8441;51.344;7.022;2024-01-27T09:01:17;1.70;99.90
16655;DHT22;8441;51.344;7.022;2024-01-27T09:03:44;1.80;99.90
16655;DHT22;8441;51.344;7.022;2024-01-27T09:06:12;1.80;99.90
16655;DHT22;8441;51.344;7.022;2024-01-27T09:08:39;1.80;99.90
16655;DHT22;8441;51.344;7.022;2024-01-27T09:11:07;1.80;99.90
16655;DHT22;8441;51.344;7.022;2024-01-27T09:13:35;1.90;99.90
16655;DHT22;8441;51.344;7.022;2024-01-27T09:16:04;2.00;99.90
16655;DHT22;8441;51.344;7.022;2024-01-27T09:18:31;2.00;99.90
16655;DHT22;8441;51.344;7.022;2024-01-27T09:20:59;2.10;99.90
16655;DHT22;8441;51.344;7.022;2024-01-27T09:23:26;2.10;99.90
16655;DHT22;8441;51.344;7.022;2024-01-27T09:25:53;2.10;99.90
16655;DHT22;8441;51.344;7.022;2024-01-27T09:28:21;2.20;99.90
16655;DHT22;8441;51.344;7.022;2024-01-27T09:30:49;2.20;99.90
16655;DHT22;8441;51.344;7.022;2024-01-27T09:33:18;2.30;99.90
16655;DHT22;8441;51.344;7.022;2024-01-27T09:35:48;2.30;99.90
16655;DHT22;8441;51.344;7.022;2024-01-27T09:38:16;2.30;99.90
16655;DHT22;8441;51.344;7.022;2024-01-27T09:40:43;2.40;99.90
16655;DHT22;8441;51.344;7.022;2024-01-27T09:43:13;2.40;99.90
16655;DHT22;8441;51.344;7.022;2024-01-27T09:45:40;2.50;99.90
16655;DHT22;8441;51.344;7.022;2024-01-27T09:48:10;2.50;99.90
16655;DHT22;8441;51.344;7.022;2024-01-27T09:50:41;2.60;99.90
16655;DHT22;8441;51.344;7.022;2024-01-27T09:53:08;2.70;99.90
16655;DHT22;8441;51.344;7.022;2024-01-27T09:55:36;2.80;99.90
16655;DHT22;8441;51.344;7.022;2024-01-27T09:58:04;2.80;99.90
16655;DHT22;8441;51.344;7.022;2024-01-27T10:00:32;2.80;99.90
16655;DHT22;8441;51.344;7.022;2024-01-27T10:03:01;2.80;99.90
16655;DHT22;8441;51.344;7.022;2024-01-27T10:05:29;3.00;99.90
16655;DHT22;8441;51.344;7.022;2024-01-27T10:07:59;3.00;99.90
16655;DHT22;8441;51.344;7.022;2024-01-27T10:10:26;3.10;99.90
16655;DHT22;8441;51.344;7.022;2024-01-27T10:12:56;3.10;99.90
16655;DHT22;8441;51.344;7.022;2024-01-27T10:15:25;3.20;99.90
16655;DHT22;8441;51.344;7.022;2024-01-27T10:18:03;3.30;99.90
16655;DHT22;8441;51.344;7.022;2024-01-27T10:20:30;3.40;99.90
16655;DHT22;8441;51.344;7.022;2024-01-27T10:23:09;3.50;99.90
16655;DHT22;8441;51.344;7.022;2024-01-27T10:25:37;3.70;99.90
16655;DHT22;8441;51.344;7.022;2024-01-27T10:28:05;3.80;99.90
16655;DHT22;8441;51.344;7.022;2024-01-27T10:30:33;3.80;99.90
16655;DHT22;8441;51.344;7.022;2024-01-27T10:33:00;3.90;99.90
16655;DHT22;8441;51.344;7.022;2024-01-27T10:35:28;4.00;99.90
16655;DHT22;8441;51.344;7.022;2024-01-27T10:37:56;4.10;99.90
16655;DHT22;8441;51.344;7.022;2024-01-27T10:40:24;4.20;99.90
16655;DHT22;8441;51.344;7.022;2024-01-27T10:43:02;4.20;99.90
16655;DHT22;8441;51.344;7.022;2024-01-27T10:45:36;4.30;99.90
16655;DHT22;8441;51.344;7.022;2024-01-27T10:48:05;4.30;99.90
16655;DHT22;8441;51.344;7.022;2024-01-27T10:50:35;4.30;99.90
16655;DHT22;8441;51.344;7.022;2024-01-27T10:53:04;4.30;99.90
16655;DHT22;8441;51.344;7.022;2024-01-27T10:55:35;4.30;99.90
16655;DHT22;8441;51.344;7.022;2024-01-27T10:58:04;4.30;99.90
16655;DHT22;8441;51.344;7.022;2024-01-27T11:00:31;4.30;99.90
16655;DHT22;8441;51.344;7.022;2024-01-27T11:03:02;4.40;99.90
16655;DHT22;8441;51.344;7.022;2024-01-27T11:05:31;4.40;99.90
16655;DHT22;8441;51.344;7.022;2024-01-27T11:08:01;4.40;99.90
16655;DHT22;8441;51.344;7.022;2024-01-27T11:10:30;4.50;99.90
16655;DHT22;8441;51.344;7.022;2024-01-27T11:13:04;4.50;99.90
16655;DHT22;8441;51.344;7.022;2024-01-27T11:15:33;4.50;99.90
16655;DHT22;8441;51.344;7.022;2024-01-27T11:18:00;4.60;99.90
16655;DHT22;8441;51.344;7.022;2024-01-27T11:20:31;4.60;99.90
16655;DHT22;8441;51.344;7.022;2024-01-27T11:23:08;4.70;99.90
16655;DHT22;8441;51.344;7.022;2024-01-27T11:25:36;4.70;99.90
16655;DHT22;8441;51.344;7.022;2024-01-27T11:28:13;4.70;99.90
16655;DHT22;8441;51.344;7.022;2024-01-27T11:30:45;4.80;99.90
16655;DHT22;8441;51.344;7.022;2024-01-27T11:33:13;4.80;99.90
16655;DHT22;8441;51.344;7.022;2024-01-27T11:35:40;4.90;99.90
16655;DHT22;8441;51.344;7.022;2024-01-27T11:38:08;4.90;99.90
16655;DHT22;8441;51.344;7.022;2024-01-27T11:40:45;4.90;99.90
16655;DHT22;8441;51.344;7.022;2024-01-27T11:43:13;5.00;99.90
16655;DHT22;8441;51.344;7.022;2024-01-27T11:45:41;5.00;99.90
16655;DHT22;8441;51.344;7.022;2024-01-27T11:48:08;5.00;99.90
16655;DHT22;8441;51.344;7.022;2024-01-27T11:50:36;5.10;99.90
16655;DHT22;8441;51.344;7.022;2024-01-27T11:53:04;5.00;99.90
16655;DHT22;8441;51.344;7.022;2024-01-27T11:55:35;5.10;99.90
16655;DHT22;8441;51.344;7.022;2024-01-27T11:58:03;5.10;99.90
16655;DHT22;8441;51.344;7.022;2024-01-27T12:00:33;5.20;99.90
16655;DHT22;8441;51.344;7.022;2024-01-27T12:03:00;5.20;99.90
16655;DHT22;8441;51.344;7.022;2024-01-27T12:05:27;5.20;99.90
16655;DHT22;8441;51.344;7.022;2024-01-27T12:07:55;5.30;99.90
16655;DHT22;8441;51.344;7.022;2024-01-27T12:10:22;5.40;99.90
16655;DHT22;8441;51.344;7.022;2024-01-27T12:12:49;5.30;99.90
16655;DHT22;8441;51.344;7.022;2024-01-27T12:15:16;5.30;99.90
16655;DHT22;8441;51.344;7.022;2024-01-27T12:17:51;5.40;99.90
16655;DHT22;8441;51.344;7.022;2024-01-27T12:20:18;5.40;99.90
16655;DHT22;8441;51.344;7.022;2024-01-27T12:22:45;5.40;99.90
16655;DHT22;8441;51.344;7.022;2024-01-27T12:25:13;5.40;99.90
16655;DHT22;8441;51.344;7.022;2024-01-27T12:27:41;5.50;99.90
16655;DHT22;8441;51.344;7.022;2024-01-27T12:30:09;5.50;99.90
16655;DHT22;8441;51.344;7.022;2024-01-27T12:32:37;5.60;99.90
16655;DHT22;8441;51.344;7.022;2024-01-27T12:35:07;5.60;99.90
16655;DHT22;8441;51.344;7.022;2024-01-27T12:37:36;5.60;99.90
16655;DHT22;8441;51.344;7.022;2024-01-27T12:40:07;5.60;99.90
16655;DHT22;8441;51.344;7.022;2024-01-27T12:42:43;5.70;99.90
16655;DHT22;8441;51.344;7.022;2024-01-27T12:45:10;5.70;99.90
16655;DHT22;8441;51.344;7.022;2024-01-27T12:47:38;5.60;99.90
16655;DHT22;8441;51.344;7.022;2024-01-27T12:50:08;5.60;99.90
16655;DHT22;8441;51.344;7.022;2024-01-27T12:52:36;5.60;99.90
16655;DHT22;8441;51.344;7.022;2024-01-27T12:55:04;5.60;99.90
16655;DHT22;8441;51.344;7.022;2024-01-27T12:57:32;5.70;99.90
16655;DHT22;8441;51.344;7.022;2024-01-27T13:00:00;5.70;99.90
16655;DHT22;8441;51.344;7.022;2024-01-27T13:02:29;5.80;99.90
16655;DHT22;8441;51.344;7.022;2024-01-27T13:04:57;5.70;99.90
16655;DHT22;8441;51.344;7.022;2024-01-27T13:07:26;5.80;99.90
16655;DHT22;8441;51.344;7.022;2024-01-27T13:09:53;5.80;99.90
16655;DHT22;8441;51.344;7.022;2024-01-27T13:12:20;5.90;99.90
16655;DHT22;8441;51.344;7.022;2024-01-27T13:14:47;5.90;99.90
16655;DHT22;8441;51.344;7.022;2024-01-27T13:17:15;5.90;99.90
16655;DHT22;8441;51.344;7.022;2024-01-27T13:19:42;5.90;99.90
16655;DHT22;8441;51.344;7.022;2024-01-27T13:22:11;6.00;99.90
16655;DHT22;8441;51.344;7.022;2024-01-27T13:24:40;6.00;99.90
16655;DHT22;8441;51.344;7.022;2024-01-27T13:27:08;6.00;99.90
16655;DHT22;8441;51.344;7.022;2024-01-27T13:29:35;6.00;99.90
16655;DHT22;8441;51.344;7.022;2024-01-27T13:32:02;6.00;99.90
16655;DHT22;8441;51.344;7.022;2024-01-27T13:34:30;6.00;99.90
16655;DHT22;8441;51.344;7.022;2024-01-27T13:36:58;5.90;99.90
16655;DHT22;8441;51.344;7.022;2024-01-27T13:39:29;5.90;99.90
16655;DHT22;8441;51.344;7.022;2024-01-27T13:41:58;5.90;99.90
16655;DHT22;8441;51.344;7.022;2024-01-27T13:44:25;5.80;99.90
16655;DHT22;8441;51.344;7.022;2024-01-27T13:46:52;5.80;99.90
16655;DHT22;8441;51.344;7.022;2024-01-27T13:49:23;5.80;99.90
16655;DHT22;8441;51.344;7.022;2024-01-27T13:51:50;5.90;99.90
16655;DHT22;8441;51.344;7.022;2024-01-27T13:54:17;5.90;99.90
16655;DHT22;8441;51.344;7.022;2024-01-27T13:56:44;5.90;99.90
16655;DHT22;8441;51.344;7.022;2024-01-27T13:59:13;5.90;99.90
16655;DHT22;8441;51.344;7.022;2024-01-27T14:01:41;5.90;99.90
16655;DHT22;8441;51.344;7.022;2024-01-27T14:04:08;5.90;99.90
16655;DHT22;8441;51.344;7.022;2024-01-27T14:06:35;5.90;99.90
16655;DHT22;8441;51.344;7.022;2024-01-27T14:09:03;5.90;99.90
16655;DHT22;8441;51.344;7.022;2024-01-27T14:11:30;5.90;99.90
16655;DHT22;8441;51.344;7.022;2024-01-27T14:13:57;5.90;99.90
16655;DHT22;8441;51.344;7.022;2024-01-27T14:16:26;5.80;99.90
16655;DHT22;8441;51.344;7.022;2024-01-27T14:18:54;5.80;99.90
16655;DHT22;8441;51.344;7.022;2024-01-27T14:21:22;5.90;99.90
16655;DHT22;8441;51.344;7.022;2024-01-27T14:23:49;5.80;99.90
16655;DHT22;8441;51.344;7.022;2024-01-27T14:26:22;5.80;99.90
16655;DHT22;8441;51.344;7.022;2024-01-27T14:28:49;5.80;99.90
16655;DHT22;8441;51.344;7.022;2024-01-27T14:32:30;5.80;99.90
16655;DHT22;8441;51.344;7.022;2024-01-27T14:34:57;5.70;99.90
16655;DHT22;8441;51.344;7.022;2024-01-27T14:39:20;5.70;99.90
16655;DHT22;8441;51.344;7.022;2024-01-27T14:41:47;5.70;99.90
16655;DHT22;8441;51.344;7.022;2024-01-27T14:44:14;5.70;99.90
16655;DHT22;8441;51.344;7.022;2024-01-27T14:46:42;5.60;99.90
16655;DHT22;8441;51.344;7.022;2024-01-27T14:49:12;5.70;99.90
16655;DHT22;8441;51.344;7.022;2024-01-27T14:51:39;5.70;99.90
16655;DHT22;8441;51.344;7.022;2024-01-27T14:54:06;5.70;99.90
16655;DHT22;8441;51.344;7.022;2024-01-27T14:56:36;5.70;99.90
16655;DHT22;8441;51.344;7.022;2024-01-27T14:59:03;5.70;99.90
16655;DHT22;8441;51.344;7.022;2024-01-27T15:01:33;5.70;99.90
16655;DHT22;8441;51.344;7.022;2024-01-27T15:04:00;5.70;99.90
16655;DHT22;8441;51.344;7.022;2024-01-27T15:06:28;5.70;99.90
16655;DHT22;8441;51.344;7.022;2024-01-27T15:08:55;5.70;99.90
16655;DHT22;8441;51.344;7.022;2024-01-27T15:11:22;5.70;99.90
16655;DHT22;8441;51.344;7.022;2024-01-27T15:13:53;5.70;99.90
16655;DHT22;8441;51.344;7.022;2024-01-27T15:16:20;5.70;99.90
16655;DHT22;8441;51.344;7.022;2024-01-27T15:18:48;5.60;99.90
16655;DHT22;8441;51.344;7.022;2024-01-27T15:21:16;5.60;99.90
16655;DHT22;8441;51.344;7.022;2024-01-27T15:23:43;5.50;99.90
16655;DHT22;8441;51.344;7.022;2024-01-27T15:26:11;5.40;99.90
16655;DHT22;8441;51.344;7.022;2024-01-27T15:28:38;5.40;99.90
16655;DHT22;8441;51.344;7.022;2024-01-27T15:31:07;5.30;99.90
16655;DHT22;8441;51.344;7.022;2024-01-27T15:33:34;5.30;99.90
16655;DHT22;8441;51.344;7.022;2024-01-27T15:36:03;5.20;99.90
16655;DHT22;8441;51.344;7.022;2024-01-27T15:38:31;5.10;99.90
16655;DHT22;8441;51.344;7.022;2024-01-27T15:40:58;5.00;99.90
16655;DHT22;8441;51.344;7.022;2024-01-27T15:43:25;4.90;99.90
16655;DHT22;8441;51.344;7.022;2024-01-27T15:45:53;4.80;99.90
16655;DHT22;8441;51.344;7.022;2024-01-27T15:48:21;4.70;99.90
16655;DHT22;8441;51.344;7.022;2024-01-27T15:50:49;4.60;99.90
16655;DHT22;8441;51.344;7.022;2024-01-27T15:53:16;4.40;99.90
16655;DHT22;8441;51.344;7.022;2024-01-27T15:55:43;4.40;99.90
16655;DHT22;8441;51.344;7.022;2024-01-27T15:58:11;4.30;99.90
16655;DHT22;8441;51.344;7.022;2024-01-27T16:00:38;4.20;99.90
16655;DHT22;8441;51.344;7.022;2024-01-27T16:03:05;4.10;99.90
16655;DHT22;8441;51.344;7.022;2024-01-27T16:05:34;4.00;99.90
16655;DHT22;8441;51.344;7.022;2024-01-27T16:08:01;4.00;99.90
16655;DHT22;8441;51.344;7.022;2024-01-27T16:10:29;3.90;99.90